sensor_id;sensor_type;location;lat;lon;timestamp;P1;durP1;ratioP1;P2;durP2;ratioP2
5458;SDS011;2752;49.992;8.422;2023-04-06T00:02:15;14.60;;;6.27;;
5458;SDS011;2752;49.992;8.422;2023-04-06T00:04:42;13.03;;;5.90;;
5458;SDS011;2752;49.992;8.422;2023-04-06T00:07:08;14.20;;;5.20;;
5458;SDS011;2752;49.992;8.422;2023-04-06T00:09:35;14.53;;;6.00;;
5458;SDS011;2752;49.992;8.422;2023-04-06T00:12:03;15.83;;;7.40;;
5458;SDS011;2752;49.992;8.422;2023-04-06T00:14:30;14.17;;;5.23;;
5458;SDS011;2752;49.992;8.422;2023-04-06T00:16:57;9.47;;;5.33;;
5458;SDS011;2752;49.992;8.422;2023-04-06T00:19:23;23.53;;;5.70;;
5458;SDS011;2752;49.992;8.422;2023-04-06T00:21:50;9.40;;;5.40;;
5458;SDS011;2752;49.992;8.422;2023-04-06T00:24:17;9.40;;;5.23;;
5458;SDS011;2752;49.992;8.422;2023-04-06T00:26:44;8.93;;;4.93;;
5458;SDS011;2752;49.992;8.422;2023-04-06T00:29:12;10.43;;;5.20;;
5458;SDS011;2752;49.992;8.422;2023-04-06T00:31:40;8.27;;;4.80;;
5458;SDS011;2752;49.992;8.422;2023-04-06T00:34:06;17.40;;;5.67;;
5458;SDS011;2752;49.992;8.422;2023-04-06T00:36:33;10.87;;;5.33;;
5458;SDS011;2752;49.992;8.422;2023-04-06T00:39:00;10.03;;;5.20;;
5458;SDS011;2752;49.992;8.422;2023-04-06T00:41:26;11.77;;;5.20;;
5458;SDS011;2752;49.992;8.422;2023-04-06T00:43:53;9.77;;;4.60;;
5458;SDS011;2752;49.992;8.422;2023-04-06T00:46:22;9.63;;;4.70;;
5458;SDS011;2752;49.992;8.422;2023-04-06T00:48:49;18.83;;;4.20;;
5458;SDS011;2752;49.992;8.422;2023-04-06T00:51:15;9.63;;;4.77;;
5458;SDS011;2752;49.992;8.422;2023-04-06T00:53:42;13.37;;;5.87;;
5458;SDS011;2752;49.992;8.422;2023-04-06T00:56:10;7.43;;;3.87;;
5458;SDS011;2752;49.992;8.422;2023-04-06T00:58:36;13.07;;;4.40;;
5458;SDS011;2752;49.992;8.422;2023-04-06T01:01:03;10.80;;;5.30;;
5458;SDS011;2752;49.992;8.422;2023-04-06T01:03:31;9.57;;;4.60;;
5458;SDS011;2752;49.992;8.422;2023-04-06T01:05:58;9.03;;;5.03;;
5458;SDS011;2752;49.992;8.422;2023-04-06T01:08:26;16.13;;;4.90;;
5458;SDS011;2752;49.992;8.422;2023-04-06T01:10:53;12.30;;;4.23;;
5458;SDS011;2752;49.992;8.422;2023-04-06T01:13:20;9.67;;;4.60;;
5458;SDS011;2752;49.992;8.422;2023-04-06T01:15:47;7.10;;;4.40;;
5458;SDS011;2752;49.992;8.422;2023-04-06T01:18:14;10.00;;;4.33;;
5458;SDS011;2752;49.992;8.422;2023-04-06T01:20:42;12.47;;;5.37;;
5458;SDS011;2752;49.992;8.422;2023-04-06T01:23:10;10.63;;;4.60;;
5458;SDS011;2752;49.992;8.422;2023-04-06T01:25:37;8.50;;;5.10;;
5458;SDS011;2752;49.992;8.422;2023-04-06T01:28:04;8.00;;;4.60;;
5458;SDS011;2752;49.992;8.422;2023-04-06T01:30:30;7.03;;;3.87;;
5458;SDS011;2752;49.992;8.422;2023-04-06T01:32:57;9.93;;;3.60;;
5458;SDS011;2752;49.992;8.422;2023-04-06T01:35:27;8.60;;;4.40;;
5458;SDS011;2752;49.992;8.422;2023-04-06T01:37:54;8.27;;;4.50;;
5458;SDS011;2752;49.992;8.422;2023-04-06T01:40:22;6.90;;;4.47;;
5458;SDS011;2752;49.992;8.422;2023-04-06T01:42:49;6.90;;;4.30;;
5458;SDS011;2752;49.992;8.422;2023-04-06T01:45:16;10.53;;;4.97;;
5458;SDS011;2752;49.992;8.422;2023-04-06T01:47:42;7.33;;;4.20;;
5458;SDS011;2752;49.992;8.422;2023-04-06T01:50:09;10.80;;;4.97;;
5458;SDS011;2752;49.992;8.422;2023-04-06T01:52:36;11.70;;;5.00;;
5458;SDS011;2752;49.992;8.422;2023-04-06T01:55:03;6.30;;;4.00;;
5458;SDS011;2752;49.992;8.422;2023-04-06T01:57:32;18.57;;;5.63;;
5458;SDS011;2752;49.992;8.422;2023-04-06T01:59:59;9.67;;;4.53;;
5458;SDS011;2752;49.992;8.422;2023-04-06T02:02:26;10.10;;;5.10;;
5458;SDS011;2752;49.992;8.422;2023-04-06T02:04:53;9.40;;;4.30;;
5458;SDS011;2752;49.992;8.422;2023-04-06T02:07:19;8.53;;;4.60;;
5458;SDS011;2752;49.992;8.422;2023-04-06T02:09:46;10.83;;;4.90;;
5458;SDS011;2752;49.992;8.422;2023-04-06T02:12:13;11.63;;;4.23;;
5458;SDS011;2752;49.992;8.422;2023-04-06T02:14:41;7.70;;;4.87;;
5458;SDS011;2752;49.992;8.422;2023-04-06T02:17:08;10.57;;;5.07;;
5458;SDS011;2752;49.992;8.422;2023-04-06T02:19:35;11.50;;;4.70;;
5458;SDS011;2752;49.992;8.422;2023-04-06T02:22:01;14.07;;;4.53;;
5458;SDS011;2752;49.992;8.422;2023-04-06T02:24:28;12.73;;;5.60;;
5458;SDS011;2752;49.992;8.422;2023-04-06T02:26:55;7.43;;;4.20;;
5458;SDS011;2752;49.992;8.422;2023-04-06T02:29:21;11.00;;;4.50;;
5458;SDS011;2752;49.992;8.422;2023-04-06T02:31:49;9.73;;;4.43;;
5458;SDS011;2752;49.992;8.422;2023-04-06T02:34:16;14.53;;;4.50;;
5458;SDS011;2752;49.992;8.422;2023-04-06T02:36:43;10.33;;;4.70;;
5458;SDS011;2752;49.992;8.422;2023-04-06T02:39:10;9.63;;;4.27;;
5458;SDS011;2752;49.992;8.422;2023-04-06T02:41:37;8.03;;;3.90;;
5458;SDS011;2752;49.992;8.422;2023-04-06T02:44:05;10.90;;;4.53;;
5458;SDS011;2752;49.992;8.422;2023-04-06T02:46:33;6.53;;;4.53;;
5458;SDS011;2752;49.992;8.422;2023-04-06T02:49:01;11.57;;;4.57;;
5458;SDS011;2752;49.992;8.422;2023-04-06T02:51:28;11.53;;;4.37;;
5458;SDS011;2752;49.992;8.422;2023-04-06T02:53:54;7.33;;;3.90;;
5458;SDS011;2752;49.992;8.422;2023-04-06T02:56:21;7.93;;;3.77;;
5458;SDS011;2752;49.992;8.422;2023-04-06T02:58:48;6.63;;;3.77;;
5458;SDS011;2752;49.992;8.422;2023-04-06T03:01:15;8.57;;;4.00;;
5458;SDS011;2752;49.992;8.422;2023-04-06T03:03:42;6.90;;;4.10;;
5458;SDS011;2752;49.992;8.422;2023-04-06T03:06:10;10.77;;;4.30;;
5458;SDS011;2752;49.992;8.422;2023-04-06T03:08:36;10.40;;;5.00;;
5458;SDS011;2752;49.992;8.422;2023-04-06T03:11:03;8.93;;;4.60;;
5458;SDS011;2752;49.992;8.422;2023-04-06T03:13:30;5.50;;;3.63;;
5458;SDS011;2752;49.992;8.422;2023-04-06T03:15:57;6.40;;;3.73;;
5458;SDS011;2752;49.992;8.422;2023-04-06T03:18:24;6.90;;;4.03;;
5458;SDS011;2752;49.992;8.422;2023-04-06T03:20:51;5.97;;;3.83;;
5458;SDS011;2752;49.992;8.422;2023-04-06T03:23:21;11.60;;;4.30;;
5458;SDS011;2752;49.992;8.422;2023-04-06T03:25:47;7.93;;;4.60;;
5458;SDS011;2752;49.992;8.422;2023-04-06T03:28:14;10.30;;;4.53;;
5458;SDS011;2752;49.992;8.422;2023-04-06T03:30:41;9.50;;;4.00;;
5458;SDS011;2752;49.992;8.422;2023-04-06T03:33:08;11.17;;;4.33;;
5458;SDS011;2752;49.992;8.422;2023-04-06T03:35:35;7.97;;;4.23;;
5458;SDS011;2752;49.992;8.422;2023-04-06T03:38:02;8.67;;;3.80;;
5458;SDS011;2752;49.992;8.422;2023-04-06T03:40:30;9.57;;;3.97;;
5458;SDS011;2752;49.992;8.422;2023-04-06T03:42:56;7.83;;;3.70;;
5458;SDS011;2752;49.992;8.422;2023-04-06T03:45:23;7.10;;;4.27;;
5458;SDS011;2752;49.992;8.422;2023-04-06T03:47:50;9.93;;;3.60;;
5458;SDS011;2752;49.992;8.422;2023-04-06T03:50:16;7.53;;;4.00;;
5458;SDS011;2752;49.992;8.422;2023-04-06T03:52:43;5.13;;;3.83;;
5458;SDS011;2752;49.992;8.422;2023-04-06T03:55:10;7.30;;;4.10;;
5458;SDS011;2752;49.992;8.422;2023-04-06T03:57:38;5.40;;;3.53;;
5458;SDS011;2752;49.992;8.422;2023-04-06T04:00:05;7.00;;;4.57;;
5458;SDS011;2752;49.992;8.422;2023-04-06T04:02:32;16.23;;;4.63;;
5458;SDS011;2752;49.992;8.422;2023-04-06T04:04:59;12.60;;;4.83;;
5458;SDS011;2752;49.992;8.422;2023-04-06T04:07:26;8.97;;;3.87;;
5458;SDS011;2752;49.992;8.422;2023-04-06T04:09:53;7.70;;;4.00;;
5458;SDS011;2752;49.992;8.422;2023-04-06T04:12:19;8.53;;;3.53;;
5458;SDS011;2752;49.992;8.422;2023-04-06T04:14:47;5.50;;;3.70;;
5458;SDS011;2752;49.992;8.422;2023-04-06T04:17:14;8.83;;;4.20;;
5458;SDS011;2752;49.992;8.422;2023-04-06T04:19:41;11.03;;;4.50;;
5458;SDS011;2752;49.992;8.422;2023-04-06T04:22:07;8.40;;;4.47;;
5458;SDS011;2752;49.992;8.422;2023-04-06T04:24:34;8.40;;;4.07;;
5458;SDS011;2752;49.992;8.422;2023-04-06T04:27:00;12.00;;;5.13;;
5458;SDS011;2752;49.992;8.422;2023-04-06T04:29:27;5.17;;;3.70;;
5458;SDS011;2752;49.992;8.422;2023-04-06T04:31:55;7.10;;;4.67;;
5458;SDS011;2752;49.992;8.422;2023-04-06T04:34:22;8.93;;;4.40;;
5458;SDS011;2752;49.992;8.422;2023-04-06T04:36:50;7.50;;;4.90;;
5458;SDS011;2752;49.992;8.422;2023-04-06T04:39:16;8.60;;;5.07;;
5458;SDS011;2752;49.992;8.422;2023-04-06T04:41:43;10.30;;;4.53;;
5458;SDS011;2752;49.992;8.422;2023-04-06T04:44:10;9.37;;;4.67;;
5458;SDS011;2752;49.992;8.422;2023-04-06T04:46:36;14.40;;;4.80;;
5458;SDS011;2752;49.992;8.422;2023-04-06T04:49:04;18.37;;;5.03;;
5458;SDS011;2752;49.992;8.422;2023-04-06T04:51:31;11.23;;;4.80;;
5458;SDS011;2752;49.992;8.422;2023-04-06T04:53:58;9.93;;;4.90;;
5458;SDS011;2752;49.992;8.422;2023-04-06T04:56:25;10.60;;;4.90;;
5458;SDS011;2752;49.992;8.422;2023-04-06T04:58:52;13.87;;;5.03;;
5458;SDS011;2752;49.992;8.422;2023-04-06T05:01:19;10.50;;;5.00;;
5458;SDS011;2752;49.992;8.422;2023-04-06T05:03:45;14.97;;;5.47;;
5458;SDS011;2752;49.992;8.422;2023-04-06T05:06:13;9.20;;;4.60;;
5458;SDS011;2752;49.992;8.422;2023-04-06T05:08:40;11.47;;;5.20;;
5458;SDS011;2752;49.992;8.422;2023-04-06T05:11:07;8.07;;;4.77;;
5458;SDS011;2752;49.992;8.422;2023-04-06T05:13:34;8.43;;;4.97;;
5458;SDS011;2752;49.992;8.422;2023-04-06T05:16:00;11.20;;;5.90;;
5458;SDS011;2752;49.992;8.422;2023-04-06T05:18:27;9.50;;;5.13;;
5458;SDS011;2752;49.992;8.422;2023-04-06T05:20:54;8.93;;;5.37;;
5458;SDS011;2752;49.992;8.422;2023-04-06T05:23:22;9.13;;;5.43;;
5458;SDS011;2752;49.992;8.422;2023-04-06T05:25:49;30.03;;;5.80;;
5458;SDS011;2752;49.992;8.422;2023-04-06T05:28:16;9.57;;;5.50;;
5458;SDS011;2752;49.992;8.422;2023-04-06T05:30:43;11.73;;;5.40;;
5458;SDS011;2752;49.992;8.422;2023-04-06T05:33:11;12.33;;;6.53;;
5458;SDS011;2752;49.992;8.422;2023-04-06T05:35:38;10.60;;;4.93;;
5458;SDS011;2752;49.992;8.422;2023-04-06T05:38:05;9.57;;;5.40;;
5458;SDS011;2752;49.992;8.422;2023-04-06T05:40:34;7.63;;;5.20;;
5458;SDS011;2752;49.992;8.422;2023-04-06T05:43:01;10.33;;;5.17;;
5458;SDS011;2752;49.992;8.422;2023-04-06T05:45:28;8.70;;;5.40;;
5458;SDS011;2752;49.992;8.422;2023-04-06T05:47:56;13.70;;;5.67;;
5458;SDS011;2752;49.992;8.422;2023-04-06T05:50:22;10.93;;;6.03;;
5458;SDS011;2752;49.992;8.422;2023-04-06T05:52:49;10.50;;;5.50;;
5458;SDS011;2752;49.992;8.422;2023-04-06T05:55:15;12.67;;;5.90;;
5458;SDS011;2752;49.992;8.422;2023-04-06T05:57:43;13.83;;;6.00;;
5458;SDS011;2752;49.992;8.422;2023-04-06T06:00:11;11.57;;;6.07;;
5458;SDS011;2752;49.992;8.422;2023-04-06T06:02:38;12.73;;;6.37;;
5458;SDS011;2752;49.992;8.422;2023-04-06T06:05:07;12.03;;;6.27;;
5458;SDS011;2752;49.992;8.422;2023-04-06T06:07:34;26.87;;;7.80;;
5458;SDS011;2752;49.992;8.422;2023-04-06T06:10:01;10.67;;;6.47;;
5458;SDS011;2752;49.992;8.422;2023-04-06T06:12:27;9.63;;;6.50;;
5458;SDS011;2752;49.992;8.422;2023-04-06T06:14:55;14.80;;;6.90;;
5458;SDS011;2752;49.992;8.422;2023-04-06T06:17:22;12.47;;;6.07;;
5458;SDS011;2752;49.992;8.422;2023-04-06T06:19:49;13.93;;;5.80;;
5458;SDS011;2752;49.992;8.422;2023-04-06T06:22:15;12.63;;;6.63;;
5458;SDS011;2752;49.992;8.422;2023-04-06T06:24:42;11.70;;;5.80;;
5458;SDS011;2752;49.992;8.422;2023-04-06T06:27:09;11.43;;;6.67;;
5458;SDS011;2752;49.992;8.422;2023-04-06T06:29:35;11.50;;;6.20;;
5458;SDS011;2752;49.992;8.422;2023-04-06T06:32:03;12.23;;;6.40;;
5458;SDS011;2752;49.992;8.422;2023-04-06T06:34:30;11.17;;;5.93;;
5458;SDS011;2752;49.992;8.422;2023-04-06T06:36:57;10.13;;;5.40;;
5458;SDS011;2752;49.992;8.422;2023-04-06T06:39:24;10.90;;;5.60;;
5458;SDS011;2752;49.992;8.422;2023-04-06T06:41:51;9.50;;;5.77;;
5458;SDS011;2752;49.992;8.422;2023-04-06T06:44:19;14.60;;;6.50;;
5458;SDS011;2752;49.992;8.422;2023-04-06T06:46:46;17.30;;;6.87;;
5458;SDS011;2752;49.992;8.422;2023-04-06T06:49:14;9.63;;;5.83;;
5458;SDS011;2752;49.992;8.422;2023-04-06T06:51:41;15.07;;;5.50;;
5458;SDS011;2752;49.992;8.422;2023-04-06T06:54:07;11.53;;;5.67;;
5458;SDS011;2752;49.992;8.422;2023-04-06T06:56:34;13.43;;;6.90;;
5458;SDS011;2752;49.992;8.422;2023-04-06T06:59:03;11.67;;;6.13;;
5458;SDS011;2752;49.992;8.422;2023-04-06T07:01:30;16.20;;;6.43;;
5458;SDS011;2752;49.992;8.422;2023-04-06T07:03:57;12.40;;;6.60;;
5458;SDS011;2752;49.992;8.422;2023-04-06T07:06:25;15.63;;;7.40;;
5458;SDS011;2752;49.992;8.422;2023-04-06T07:08:52;14.17;;;7.90;;
5458;SDS011;2752;49.992;8.422;2023-04-06T07:11:19;14.93;;;7.13;;
5458;SDS011;2752;49.992;8.422;2023-04-06T07:13:45;23.63;;;8.00;;
5458;SDS011;2752;49.992;8.422;2023-04-06T07:16:12;14.20;;;6.87;;
5458;SDS011;2752;49.992;8.422;2023-04-06T07:18:39;16.50;;;7.53;;
5458;SDS011;2752;49.992;8.422;2023-04-06T07:21:05;12.80;;;7.10;;
5458;SDS011;2752;49.992;8.422;2023-04-06T07:23:33;21.20;;;7.10;;
5458;SDS011;2752;49.992;8.422;2023-04-06T07:26:00;20.10;;;8.50;;
5458;SDS011;2752;49.992;8.422;2023-04-06T07:28:27;15.07;;;6.60;;
5458;SDS011;2752;49.992;8.422;2023-04-06T07:30:53;20.23;;;8.03;;
5458;SDS011;2752;49.992;8.422;2023-04-06T07:33:20;15.53;;;7.47;;
5458;SDS011;2752;49.992;8.422;2023-04-06T07:35:47;15.50;;;7.20;;
5458;SDS011;2752;49.992;8.422;2023-04-06T07:38:13;13.27;;;6.67;;
5458;SDS011;2752;49.992;8.422;2023-04-06T07:40:41;12.77;;;7.10;;
5458;SDS011;2752;49.992;8.422;2023-04-06T07:43:08;28.73;;;7.40;;
5458;SDS011;2752;49.992;8.422;2023-04-06T07:45:35;11.60;;;7.40;;
5458;SDS011;2752;49.992;8.422;2023-04-06T07:48:01;13.90;;;7.70;;
5458;SDS011;2752;49.992;8.422;2023-04-06T07:50:28;11.47;;;6.80;;
5458;SDS011;2752;49.992;8.422;2023-04-06T07:52:55;14.10;;;7.00;;
5458;SDS011;2752;49.992;8.422;2023-04-06T07:55:22;13.73;;;7.33;;
5458;SDS011;2752;49.992;8.422;2023-04-06T07:57:50;18.83;;;8.17;;
5458;SDS011;2752;49.992;8.422;2023-04-06T08:00:17;11.27;;;6.50;;
5458;SDS011;2752;49.992;8.422;2023-04-06T08:02:44;12.40;;;6.17;;
5458;SDS011;2752;49.992;8.422;2023-04-06T08:05:11;21.47;;;7.80;;
5458;SDS011;2752;49.992;8.422;2023-04-06T08:07:38;13.93;;;8.10;;
5458;SDS011;2752;49.992;8.422;2023-04-06T08:10:04;22.83;;;8.17;;
5458;SDS011;2752;49.992;8.422;2023-04-06T08:12:31;12.10;;;7.17;;
5458;SDS011;2752;49.992;8.422;2023-04-06T08:15:00;12.90;;;6.67;;
5458;SDS011;2752;49.992;8.422;2023-04-06T08:17:27;13.30;;;8.03;;
5458;SDS011;2752;49.992;8.422;2023-04-06T08:19:55;17.40;;;8.47;;
5458;SDS011;2752;49.992;8.422;2023-04-06T08:22:22;12.40;;;8.63;;
5458;SDS011;2752;49.992;8.422;2023-04-06T08:24:48;15.33;;;8.30;;
5458;SDS011;2752;49.992;8.422;2023-04-06T08:27:15;13.17;;;8.20;;
5458;SDS011;2752;49.992;8.422;2023-04-06T08:29:41;12.53;;;8.53;;
5458;SDS011;2752;49.992;8.422;2023-04-06T08:32:09;28.73;;;8.30;;
5458;SDS011;2752;49.992;8.422;2023-04-06T08:34:36;13.40;;;7.50;;
5458;SDS011;2752;49.992;8.422;2023-04-06T08:37:03;18.83;;;9.13;;
5458;SDS011;2752;49.992;8.422;2023-04-06T08:39:30;16.13;;;9.37;;
5458;SDS011;2752;49.992;8.422;2023-04-06T08:41:58;14.80;;;7.90;;
5458;SDS011;2752;49.992;8.422;2023-04-06T08:44:27;15.47;;;9.33;;
5458;SDS011;2752;49.992;8.422;2023-04-06T08:46:55;15.20;;;8.43;;
5458;SDS011;2752;49.992;8.422;2023-04-06T08:49:23;14.53;;;8.40;;
5458;SDS011;2752;49.992;8.422;2023-04-06T08:51:49;27.00;;;9.20;;
5458;SDS011;2752;49.992;8.422;2023-04-06T08:54:16;16.80;;;9.43;;
5458;SDS011;2752;49.992;8.422;2023-04-06T08:56:43;20.50;;;9.30;;
5458;SDS011;2752;49.992;8.422;2023-04-06T08:59:10;14.33;;;8.80;;
5458;SDS011;2752;49.992;8.422;2023-04-06T09:01:39;19.83;;;9.53;;
5458;SDS011;2752;49.992;8.422;2023-04-06T09:04:07;18.93;;;9.60;;
5458;SDS011;2752;49.992;8.422;2023-04-06T09:06:37;22.50;;;9.60;;
5458;SDS011;2752;49.992;8.422;2023-04-06T09:09:05;15.20;;;9.30;;
5458;SDS011;2752;49.992;8.422;2023-04-06T09:11:45;19.87;;;9.93;;
5458;SDS011;2752;49.992;8.422;2023-04-06T09:14:13;16.70;;;9.60;;
5458;SDS011;2752;49.992;8.422;2023-04-06T09:16:40;21.93;;;10.33;;
5458;SDS011;2752;49.992;8.422;2023-04-06T09:19:07;24.90;;;10.87;;
5458;SDS011;2752;49.992;8.422;2023-04-06T09:21:35;18.47;;;11.10;;
5458;SDS011;2752;49.992;8.422;2023-04-06T09:24:05;21.80;;;10.13;;
5458;SDS011;2752;49.992;8.422;2023-04-06T09:26:43;20.83;;;10.47;;
5458;SDS011;2752;49.992;8.422;2023-04-06T09:29:21;19.10;;;10.17;;
5458;SDS011;2752;49.992;8.422;2023-04-06T09:31:49;18.50;;;9.87;;
5458;SDS011;2752;49.992;8.422;2023-04-06T09:34:20;20.83;;;10.10;;
5458;SDS011;2752;49.992;8.422;2023-04-06T09:36:49;25.50;;;10.87;;
5458;SDS011;2752;49.992;8.422;2023-04-06T09:39:19;16.00;;;9.90;;
5458;SDS011;2752;49.992;8.422;2023-04-06T09:41:51;19.30;;;10.90;;
5458;SDS011;2752;49.992;8.422;2023-04-06T09:44:19;18.80;;;9.47;;
5458;SDS011;2752;49.992;8.422;2023-04-06T09:46:46;22.93;;;10.53;;
5458;SDS011;2752;49.992;8.422;2023-04-06T09:49:13;21.50;;;9.57;;
5458;SDS011;2752;49.992;8.422;2023-04-06T09:51:41;21.27;;;8.40;;
5458;SDS011;2752;49.992;8.422;2023-04-06T09:54:18;15.50;;;8.87;;
5458;SDS011;2752;49.992;8.422;2023-04-06T09:56:47;18.60;;;9.40;;
5458;SDS011;2752;49.992;8.422;2023-04-06T09:59:20;16.27;;;8.93;;
5458;SDS011;2752;49.992;8.422;2023-04-06T10:01:52;13.83;;;9.00;;
5458;SDS011;2752;49.992;8.422;2023-04-06T10:04:26;16.70;;;9.07;;
5458;SDS011;2752;49.992;8.422;2023-04-06T10:07:00;21.50;;;9.90;;
5458;SDS011;2752;49.992;8.422;2023-04-06T10:09:31;23.07;;;10.37;;
5458;SDS011;2752;49.992;8.422;2023-04-06T10:12:02;15.37;;;9.80;;
5458;SDS011;2752;49.992;8.422;2023-04-06T10:14:31;20.67;;;10.33;;
5458;SDS011;2752;49.992;8.422;2023-04-06T10:17:02;17.67;;;9.33;;
5458;SDS011;2752;49.992;8.422;2023-04-06T10:19:33;16.03;;;9.20;;
5458;SDS011;2752;49.992;8.422;2023-04-06T10:22:06;21.97;;;10.60;;
5458;SDS011;2752;49.992;8.422;2023-04-06T10:24:39;20.13;;;8.70;;
5458;SDS011;2752;49.992;8.422;2023-04-06T10:27:06;20.03;;;9.67;;
5458;SDS011;2752;49.992;8.422;2023-04-06T10:29:42;17.07;;;9.73;;
5458;SDS011;2752;49.992;8.422;2023-04-06T10:32:11;23.90;;;11.07;;
5458;SDS011;2752;49.992;8.422;2023-04-06T10:34:39;18.50;;;9.13;;
5458;SDS011;2752;49.992;8.422;2023-04-06T10:37:13;19.80;;;9.40;;
5458;SDS011;2752;49.992;8.422;2023-04-06T10:39:51;18.37;;;9.70;;
5458;SDS011;2752;49.992;8.422;2023-04-06T10:42:23;15.70;;;8.60;;
5458;SDS011;2752;49.992;8.422;2023-04-06T10:44:51;16.87;;;8.63;;
5458;SDS011;2752;49.992;8.422;2023-04-06T10:47:18;17.73;;;8.07;;
5458;SDS011;2752;49.992;8.422;2023-04-06T10:49:46;24.93;;;10.27;;
5458;SDS011;2752;49.992;8.422;2023-04-06T10:52:13;17.83;;;10.13;;
5458;SDS011;2752;49.992;8.422;2023-04-06T10:54:41;22.50;;;9.57;;
5458;SDS011;2752;49.992;8.422;2023-04-06T10:57:11;20.53;;;9.53;;
5458;SDS011;2752;49.992;8.422;2023-04-06T10:59:41;27.83;;;10.27;;
5458;SDS011;2752;49.992;8.422;2023-04-06T11:02:18;20.43;;;10.63;;
5458;SDS011;2752;49.992;8.422;2023-04-06T11:04:53;17.03;;;8.87;;
5458;SDS011;2752;49.992;8.422;2023-04-06T11:07:25;18.80;;;9.60;;
5458;SDS011;2752;49.992;8.422;2023-04-06T11:09:54;15.67;;;8.90;;
5458;SDS011;2752;49.992;8.422;2023-04-06T11:12:24;19.47;;;9.80;;
5458;SDS011;2752;49.992;8.422;2023-04-06T11:14:55;22.77;;;9.90;;
5458;SDS011;2752;49.992;8.422;2023-04-06T11:17:27;18.97;;;8.60;;
5458;SDS011;2752;49.992;8.422;2023-04-06T11:19:55;21.50;;;10.07;;
5458;SDS011;2752;49.992;8.422;2023-04-06T11:22:22;23.60;;;10.63;;
5458;SDS011;2752;49.992;8.422;2023-04-06T11:24:49;19.83;;;8.97;;
5458;SDS011;2752;49.992;8.422;2023-04-06T11:27:17;21.70;;;9.60;;
5458;SDS011;2752;49.992;8.422;2023-04-06T11:29:47;20.17;;;9.70;;
5458;SDS011;2752;49.992;8.422;2023-04-06T11:32:23;22.10;;;9.33;;
5458;SDS011;2752;49.992;8.422;2023-04-06T11:34:51;25.20;;;9.90;;
5458;SDS011;2752;49.992;8.422;2023-04-06T11:37:18;21.00;;;9.60;;
5458;SDS011;2752;49.992;8.422;2023-04-06T11:39:46;32.17;;;11.90;;
5458;SDS011;2752;49.992;8.422;2023-04-06T11:42:21;26.50;;;10.77;;
5458;SDS011;2752;49.992;8.422;2023-04-06T11:44:51;21.50;;;8.90;;
5458;SDS011;2752;49.992;8.422;2023-04-06T11:47:20;21.03;;;9.70;;
5458;SDS011;2752;49.992;8.422;2023-04-06T11:49:54;21.10;;;10.70;;
5458;SDS011;2752;49.992;8.422;2023-04-06T11:52:22;22.60;;;9.80;;
5458;SDS011;2752;49.992;8.422;2023-04-06T11:54:50;20.60;;;9.47;;
5458;SDS011;2752;49.992;8.422;2023-04-06T11:57:19;20.23;;;9.07;;
5458;SDS011;2752;49.992;8.422;2023-04-06T11:59:48;27.77;;;9.47;;
5458;SDS011;2752;49.992;8.422;2023-04-06T12:02:21;20.80;;;9.50;;
5458;SDS011;2752;49.992;8.422;2023-04-06T12:04:48;21.03;;;10.37;;
5458;SDS011;2752;49.992;8.422;2023-04-06T12:07:15;19.17;;;9.80;;
5458;SDS011;2752;49.992;8.422;2023-04-06T12:09:43;23.37;;;9.90;;
5458;SDS011;2752;49.992;8.422;2023-04-06T12:12:10;19.03;;;9.70;;
5458;SDS011;2752;49.992;8.422;2023-04-06T12:14:37;24.33;;;10.43;;
5458;SDS011;2752;49.992;8.422;2023-04-06T12:17:05;25.00;;;9.33;;
5458;SDS011;2752;49.992;8.422;2023-04-06T12:19:33;16.93;;;9.67;;
5458;SDS011;2752;49.992;8.422;2023-04-06T12:22:00;23.47;;;10.47;;
5458;SDS011;2752;49.992;8.422;2023-04-06T12:24:28;21.10;;;10.57;;
5458;SDS011;2752;49.992;8.422;2023-04-06T12:26:55;25.80;;;10.13;;
5458;SDS011;2752;49.992;8.422;2023-04-06T12:29:23;28.47;;;10.70;;
5458;SDS011;2752;49.992;8.422;2023-04-06T12:31:51;20.10;;;10.50;;
5458;SDS011;2752;49.992;8.422;2023-04-06T12:34:19;20.63;;;9.50;;
5458;SDS011;2752;49.992;8.422;2023-04-06T12:36:47;21.23;;;9.53;;
5458;SDS011;2752;49.992;8.422;2023-04-06T12:39:15;22.57;;;9.93;;
5458;SDS011;2752;49.992;8.422;2023-04-06T12:41:42;21.90;;;11.73;;
5458;SDS011;2752;49.992;8.422;2023-04-06T12:44:10;18.03;;;9.17;;
5458;SDS011;2752;49.992;8.422;2023-04-06T12:46:37;17.63;;;9.77;;
5458;SDS011;2752;49.992;8.422;2023-04-06T12:49:04;19.57;;;8.67;;
5458;SDS011;2752;49.992;8.422;2023-04-06T12:51:33;18.03;;;9.07;;
5458;SDS011;2752;49.992;8.422;2023-04-06T12:54:00;23.80;;;9.77;;
5458;SDS011;2752;49.992;8.422;2023-04-06T12:56:27;21.20;;;9.03;;
5458;SDS011;2752;49.992;8.422;2023-04-06T12:58:56;24.07;;;9.27;;
5458;SDS011;2752;49.992;8.422;2023-04-06T13:01:23;17.07;;;9.10;;
5458;SDS011;2752;49.992;8.422;2023-04-06T13:03:52;18.27;;;9.13;;
5458;SDS011;2752;49.992;8.422;2023-04-06T13:06:19;21.30;;;9.10;;
5458;SDS011;2752;49.992;8.422;2023-04-06T13:08:48;16.50;;;9.30;;
5458;SDS011;2752;49.992;8.422;2023-04-06T13:11:16;18.23;;;8.17;;
5458;SDS011;2752;49.992;8.422;2023-04-06T13:13:45;15.37;;;7.80;;
5458;SDS011;2752;49.992;8.422;2023-04-06T13:16:13;18.83;;;7.77;;
5458;SDS011;2752;49.992;8.422;2023-04-06T13:18:40;16.17;;;8.03;;
5458;SDS011;2752;49.992;8.422;2023-04-06T13:21:07;12.97;;;6.97;;
5458;SDS011;2752;49.992;8.422;2023-04-06T13:23:34;14.83;;;8.00;;
5458;SDS011;2752;49.992;8.422;2023-04-06T13:26:04;16.70;;;8.07;;
5458;SDS011;2752;49.992;8.422;2023-04-06T13:28:32;13.10;;;6.87;;
5458;SDS011;2752;49.992;8.422;2023-04-06T13:31:02;12.60;;;6.40;;
5458;SDS011;2752;49.992;8.422;2023-04-06T13:33:29;15.47;;;6.23;;
5458;SDS011;2752;49.992;8.422;2023-04-06T13:35:58;17.93;;;7.20;;
5458;SDS011;2752;49.992;8.422;2023-04-06T13:38:25;11.03;;;6.30;;
5458;SDS011;2752;49.992;8.422;2023-04-06T13:40:52;15.90;;;8.00;;
5458;SDS011;2752;49.992;8.422;2023-04-06T13:43:21;14.40;;;8.13;;
5458;SDS011;2752;49.992;8.422;2023-04-06T13:45:51;21.27;;;6.53;;
5458;SDS011;2752;49.992;8.422;2023-04-06T13:48:20;9.73;;;5.93;;
5458;SDS011;2752;49.992;8.422;2023-04-06T13:50:47;16.30;;;6.73;;
5458;SDS011;2752;49.992;8.422;2023-04-06T13:53:14;12.97;;;6.60;;
5458;SDS011;2752;49.992;8.422;2023-04-06T13:55:41;13.53;;;6.63;;
5458;SDS011;2752;49.992;8.422;2023-04-06T13:58:08;15.73;;;7.13;;
5458;SDS011;2752;49.992;8.422;2023-04-06T14:00:37;15.33;;;6.97;;
5458;SDS011;2752;49.992;8.422;2023-04-06T14:03:04;11.30;;;6.83;;
5458;SDS011;2752;49.992;8.422;2023-04-06T14:05:33;15.90;;;6.97;;
5458;SDS011;2752;49.992;8.422;2023-04-06T14:08:00;16.73;;;7.50;;
5458;SDS011;2752;49.992;8.422;2023-04-06T14:10:27;14.03;;;6.87;;
5458;SDS011;2752;49.992;8.422;2023-04-06T14:12:54;22.77;;;6.83;;
5458;SDS011;2752;49.992;8.422;2023-04-06T14:15:23;15.50;;;7.17;;
5458;SDS011;2752;49.992;8.422;2023-04-06T14:17:51;16.13;;;7.33;;
5458;SDS011;2752;49.992;8.422;2023-04-06T14:20:18;11.40;;;5.80;;
5458;SDS011;2752;49.992;8.422;2023-04-06T14:22:45;13.70;;;6.50;;
5458;SDS011;2752;49.992;8.422;2023-04-06T14:25:14;13.10;;;8.00;;
5458;SDS011;2752;49.992;8.422;2023-04-06T14:27:42;17.10;;;6.60;;
5458;SDS011;2752;49.992;8.422;2023-04-06T14:30:10;16.77;;;6.20;;
5458;SDS011;2752;49.992;8.422;2023-04-06T14:32:37;15.50;;;6.77;;
5458;SDS011;2752;49.992;8.422;2023-04-06T14:35:06;24.43;;;7.63;;
5458;SDS011;2752;49.992;8.422;2023-04-06T14:37:33;14.67;;;7.60;;
5458;SDS011;2752;49.992;8.422;2023-04-06T14:40:00;11.90;;;7.13;;
5458;SDS011;2752;49.992;8.422;2023-04-06T14:42:27;14.23;;;7.77;;
5458;SDS011;2752;49.992;8.422;2023-04-06T14:44:54;15.70;;;7.37;;
5458;SDS011;2752;49.992;8.422;2023-04-06T14:47:21;12.40;;;6.53;;
5458;SDS011;2752;49.992;8.422;2023-04-06T14:49:50;13.70;;;7.00;;
5458;SDS011;2752;49.992;8.422;2023-04-06T14:52:19;14.57;;;6.80;;
5458;SDS011;2752;49.992;8.422;2023-04-06T14:54:47;13.10;;;6.63;;
5458;SDS011;2752;49.992;8.422;2023-04-06T14:57:14;13.73;;;7.40;;
5458;SDS011;2752;49.992;8.422;2023-04-06T14:59:40;9.20;;;6.20;;
5458;SDS011;2752;49.992;8.422;2023-04-06T15:02:07;11.90;;;6.40;;
5458;SDS011;2752;49.992;8.422;2023-04-06T15:04:34;10.07;;;5.93;;
5458;SDS011;2752;49.992;8.422;2023-04-06T15:07:01;10.87;;;5.83;;